Time;durP1;ratioP1;P1;durP2;ratioP2;P2;SDS_P1;SDS_P2;PMS_P1;PMS_P2;Temp;Humidity;BMP_temperature;BMP_pressure;BME280_temperature;BME280_humidity;BME280_pressure;Samples;Min_cycle;Max_cycle;Signal;HPM_P1;HPM_P2
2022/10/09 00:02:51;;;;;;;7.55;4.20;;;;;;;;;;4994025;28;20030;-79
2022/10/09 00:05:44;;;;;;;8.18;4.20;;;;;;;;;;4990566;28;20038;-78
2022/10/09 00:08:42;;;;;;;7.20;3.78;;;;;;;;;;5002328;28;20029;-78
2022/10/09 00:11:27;;;;;;;;;;;;;;;;;;;;;
2022/10/09 00:17:55;;;;;;;10.13;3.60;;;;;;;;;;4875502;29;20120;-76
2022/10/09 00:24:11;;;;;;;;;;;;;;;;;;;;;
2022/10/09 00:36:28;;;;;;;9.45;3.67;;;;;;;;;;4952803;28;20404;-79
2022/10/09 00:39:08;;;;;;;7.13;3.55;;;;;;;;;;5017940;23;20539;-79
2022/10/09 00:42:25;;;;;;;;;;;;;;;;;;;;;
2022/10/09 00:45:15;;;;;;;6.90;3.15;;;;;;;;;;4989636;28;20038;-78
2022/10/09 00:47:51;;;;;;;6.20;3.20;;;;;;;;;;5010926;28;20025;-78
2022/10/09 00:50:29;;;;;;;7.68;3.30;;;;;;;;;;4994873;28;20023;-78
2022/10/09 00:52:59;;;;;;;5.65;3.05;;;;;;;;;;4966454;28;20023;-77
2022/10/09 01:01:36;;;;;;;10.07;3.42;;;;;;;;;;4975972;28;20030;-79
2022/10/09 01:04:13;;;;;;;7.68;3.10;;;;;;;;;;4941845;28;20069;-79
2022/10/09 01:07:11;;;;;;;7.32;2.83;;;;;;;;;;4954431;29;20390;-78
2022/10/09 01:10:12;;;;;;;;;;;;;;;;;;;;;
2022/10/09 01:13:09;;;;;;;;;;;;;;;;;;;;;
2022/10/09 01:18:56;;;;;;;9.30;3.03;;;;;;;;;;4991980;28;20101;-79
2022/10/09 01:30:59;;;;;;;8.07;3.45;;;;;;;;;;4986255;28;20378;-78
2022/10/09 01:42:17;;;;;;;9.60;4.25;;;;;;;;;;4989373;28;20044;-78
2022/10/09 01:44:55;;;;;;;7.38;3.92;;;;;;;;;;4977580;28;20023;-76
2022/10/09 01:50:20;;;;;;;6.07;4.28;;;;;;;;;;4964665;28;20022;-74
2022/10/09 01:53:28;;;;;;;17.77;4.70;;;;;;;;;;4964757;28;20035;-81
2022/10/09 01:56:21;;;;;;;10.20;4.38;;;;;;;;;;4877556;29;20029;-78
2022/10/09 01:59:15;;;;;;;10.00;4.13;;;;;;;;;;4881248;29;20128;-75
2022/10/09 02:02:17;;;;;;;;;;;;;;;;;;;;;
2022/10/09 02:05:12;;;;;;;6.97;3.67;;;;;;;;;;4899756;29;20040;-79
2022/10/09 02:17:45;;;;;;;10.75;4.18;;;;;;;;;;4912552;29;20043;-78
2022/10/09 02:26:57;;;;;;;;;;;;;;;;;;;;;
2022/10/09 02:31:57;;;;;;;7.70;3.53;;;;;;;;;;5057404;23;20512;-79
2022/10/09 02:37:27;;;;;;;5.45;3.55;;;;;;;;;;4933275;29;20054;-78
2022/10/09 02:43:13;;;;;;;;;;;;;;;;;;;;;
2022/10/09 02:45:39;;;;;;;8.75;3.75;;;;;;;;;;4952136;28;20030;-78
2022/10/09 02:48:08;;;;;;;11.82;4.93;;;;;;;;;;4999454;28;20044;-79
2022/10/09 02:50:42;;;;;;;11.70;4.90;;;;;;;;;;4990074;28;20358;-78
2022/10/09 02:53:08;;;;;;;8.27;4.30;;;;;;;;;;4993230;28;20030;-77
2022/10/09 02:55:35;;;;;;;8.65;4.47;;;;;;;;;;4986910;28;20025;-77
2022/10/09 02:58:04;;;;;;;5.75;4.20;;;;;;;;;;4998265;28;20026;-78
2022/10/09 03:00:30;;;;;;;8.40;4.18;;;;;;;;;;4984804;28;20070;-77
2022/10/09 03:02:56;;;;;;;15.32;4.57;;;;;;;;;;4961945;28;20522;-77
2022/10/09 03:05:22;;;;;;;8.20;4.38;;;;;;;;;;4982662;28;20553;-77
2022/10/09 03:07:51;;;;;;;10.80;4.18;;;;;;;;;;4983983;28;20488;-77
2022/10/09 03:10:18;;;;;;;11.10;4.47;;;;;;;;;;4967556;28;20022;-77
2022/10/09 03:12:44;;;;;;;8.02;4.43;;;;;;;;;;4974972;28;20080;-77
2022/10/09 03:15:11;;;;;;;10.60;4.60;;;;;;;;;;4980251;28;20479;-76
2022/10/09 03:17:37;;;;;;;8.93;4.32;;;;;;;;;;5001847;28;20100;-76
2022/10/09 03:20:03;;;;;;;9.77;4.75;;;;;;;;;;4994861;28;20033;-78
2022/10/09 03:22:29;;;;;;;8.23;5.30;;;;;;;;;;4979299;28;20567;-78
2022/10/09 03:24:59;;;;;;;10.23;4.70;;;;;;;;;;4975994;28;20050;-77
2022/10/09 03:27:27;;;;;;;12.48;4.32;;;;;;;;;;4989247;28;20034;-78
2022/10/09 03:29:53;;;;;;;9.02;4.47;;;;;;;;;;4989367;28;20026;-77
2022/10/09 03:32:19;;;;;;;10.75;4.78;;;;;;;;;;4978947;28;20031;-77
2022/10/09 03:34:45;;;;;;;10.07;4.68;;;;;;;;;;4974501;28;20039;-77
2022/10/09 03:37:11;;;;;;;10.32;5.30;;;;;;;;;;5001557;28;20022;-77
2022/10/09 03:39:37;;;;;;;9.13;4.50;;;;;;;;;;4966158;28;20058;-77
2022/10/09 03:42:03;;;;;;;15.52;5.18;;;;;;;;;;4979662;28;20046;-78
2022/10/09 03:44:29;;;;;;;8.23;3.80;;;;;;;;;;4986770;28;20101;-79
2022/10/09 03:46:55;;;;;;;6.57;4.07;;;;;;;;;;4997064;28;20037;-78
2022/10/09 03:49:21;;;;;;;11.80;5.43;;;;;;;;;;4978806;28;20030;-78
2022/10/09 03:51:47;;;;;;;10.60;4.82;;;;;;;;;;4968079;28;20065;-78
2022/10/09 03:54:12;;;;;;;9.25;4.53;;;;;;;;;;4981460;28;20373;-76
2022/10/09 03:56:38;;;;;;;8.75;4.78;;;;;;;;;;4977253;28;20031;-76
2022/10/09 03:59:06;;;;;;;10.65;5.57;;;;;;;;;;4976529;28;20114;-77
2022/10/09 04:01:32;;;;;;;8.80;5.03;;;;;;;;;;4966685;28;20485;-79
2022/10/09 04:03:58;;;;;;;13.82;5.63;;;;;;;;;;4975331;28;20385;-77
2022/10/09 04:06:24;;;;;;;16.33;5.65;;;;;;;;;;4977174;28;20025;-78
2022/10/09 04:08:50;;;;;;;13.75;5.80;;;;;;;;;;4972629;28;20112;-78
2022/10/09 04:11:16;;;;;;;7.97;4.72;;;;;;;;;;4988694;28;20029;-78
2022/10/09 04:13:42;;;;;;;12.23;6.20;;;;;;;;;;4973567;28;20099;-78
2022/10/09 04:16:11;;;;;;;8.20;4.70;;;;;;;;;;4997486;28;20460;-79
2022/10/09 04:18:38;;;;;;;10.30;5.35;;;;;;;;;;4996669;28;20397;-78
2022/10/09 04:21:04;;;;;;;10.75;5.28;;;;;;;;;;4973943;28;20504;-78
2022/10/09 04:23:30;;;;;;;7.57;4.30;;;;;;;;;;4977589;28;20038;-79
2022/10/09 04:25:58;;;;;;;9.23;5.43;;;;;;;;;;4997668;28;20033;-80
2022/10/09 04:28:24;;;;;;;10.52;5.65;;;;;;;;;;4999943;28;20027;-78
2022/10/09 04:30:50;;;;;;;7.72;4.75;;;;;;;;;;4999535;28;20027;-80
2022/10/09 04:33:16;;;;;;;15.27;5.43;;;;;;;;;;5013501;28;20023;-79
2022/10/09 04:35:43;;;;;;;11.48;6.00;;;;;;;;;;4994677;28;20041;-80
2022/10/09 04:38:14;;;;;;;11.68;5.25;;;;;;;;;;5016827;28;20026;-81
2022/10/09 04:40:40;;;;;;;11.43;5.15;;;;;;;;;;5013941;28;20152;-78
2022/10/09 04:43:06;;;;;;;9.95;5.10;;;;;;;;;;4994952;28;20037;-78
2022/10/09 04:45:32;;;;;;;9.27;5.65;;;;;;;;;;4996720;28;20058;-78
2022/10/09 04:47:58;;;;;;;10.98;5.88;;;;;;;;;;5004337;28;20033;-78
2022/10/09 04:50:25;;;;;;;7.82;4.60;;;;;;;;;;4987025;28;20046;-78
2022/10/09 04:52:51;;;;;;;11.57;4.78;;;;;;;;;;4963684;28;20031;-79
2022/10/09 04:55:19;;;;;;;8.18;4.75;;;;;;;;;;4967007;28;20476;-78
2022/10/09 04:57:45;;;;;;;7.47;4.60;;;;;;;;;;5007309;28;20026;-78
2022/10/09 05:00:14;;;;;;;10.52;5.60;;;;;;;;;;4984528;28;20095;-78
2022/10/09 05:02:40;;;;;;;12.07;5.43;;;;;;;;;;4994627;28;20042;-78
2022/10/09 05:05:06;;;;;;;10.80;6.05;;;;;;;;;;4979585;28;20030;-78
2022/10/09 05:07:32;;;;;;;7.85;4.68;;;;;;;;;;5001020;28;20030;-78
2022/10/09 05:09:58;;;;;;;7.38;5.50;;;;;;;;;;4963122;28;20027;-78
2022/10/09 05:12:24;;;;;;;10.50;5.28;;;;;;;;;;4995254;28;20485;-77
2022/10/09 05:14:50;;;;;;;12.30;5.18;;;;;;;;;;4976976;28;20026;-78
2022/10/09 05:20:32;;;;;;;15.43;6.32;;;;;;;;;;1237973;26;20172;-77
2022/10/09 05:26:52;;;;;;;13.25;5.50;;;;;;;;;;4969121;28;20039;-76
2022/10/09 05:32:59;;;;;;;;;;;;;;;;;;;;;
2022/10/09 05:39:17;;;;;;;11.70;6.50;;;;;;;;;;4970113;28;20544;-79
2022/10/09 05:44:48;;;;;;;9.70;5.93;;;;;;;;;;4924710;29;20032;-76
2022/10/09 05:57:49;;;;;;;5.65;3.17;;;;;;;;;;4933757;28;20023;-77
2022/10/09 06:02:46;;;;;;;6.22;3.95;;;;;;;;;;4956506;28;20163;-78
2022/10/09 06:05:39;;;;;;;6.95;3.47;;;;;;;;;;4942294;28;20027;-78
2022/10/09 06:08:25;;;;;;;6.18;3.33;;;;;;;;;;4938578;28;20032;-78
2022/10/09 06:11:02;;;;;;;4.05;2.30;;;;;;;;;;4951460;29;20031;-80
2022/10/09 06:13:33;;;;;;;3.50;2.45;;;;;;;;;;4975896;28;20019;-80
2022/10/09 06:16:15;;;;;;;;;;;;;;;;;;;;;
2022/10/09 06:21:49;;;;;;;4.03;2.38;;;;;;;;;;4943686;28;20548;-79
2022/10/09 06:24:25;;;;;;;2.67;2.47;;;;;;;;;;4955389;28;20027;-77
2022/10/09 06:30:34;;;;;;;;;;;;;;;;;;;;;
2022/10/09 06:42:34;;;;;;;5.43;2.75;;;;;;;;;;5062620;23;20043;-79
2022/10/09 06:45:01;;;;;;;7.68;2.88;;;;;;;;;;4926589;28;20506;-80
2022/10/09 06:50:54;;;;;;;4.97;2.58;;;;;;;;;;4978341;28;20549;-80
2022/10/09 06:56:42;;;;;;;7.40;2.80;;;;;;;;;;4981055;28;20455;-82
2022/10/09 06:59:50;;;;;;;4.07;2.40;;;;;;;;;;4978639;28;20029;-80
2022/10/09 07:02:23;;;;;;;5.07;2.90;;;;;;;;;;4959528;28;20027;-78
2022/10/09 07:04:49;;;;;;;6.82;2.85;;;;;;;;;;4965229;28;20031;-77
2022/10/09 07:07:15;;;;;;;5.70;2.78;;;;;;;;;;4984607;28;20034;-77
2022/10/09 07:09:43;;;;;;;4.53;2.25;;;;;;;;;;4975614;28;20022;-76
2022/10/09 07:12:09;;;;;;;3.00;2.38;;;;;;;;;;4971834;28;20096;-75
2022/10/09 07:14:35;;;;;;;4.80;2.72;;;;;;;;;;4944415;28;20027;-77
2022/10/09 07:17:02;;;;;;;6.88;2.80;;;;;;;;;;4982829;28;20034;-76
2022/10/09 07:19:28;;;;;;;3.17;2.35;;;;;;;;;;4983876;28;20014;-76
2022/10/09 07:21:54;;;;;;;7.85;3.38;;;;;;;;;;4969998;28;20034;-76
2022/10/09 07:24:20;;;;;;;4.88;3.33;;;;;;;;;;4978985;28;20025;-76
2022/10/09 07:26:46;;;;;;;5.35;3.22;;;;;;;;;;4968735;28;20019;-77
2022/10/09 07:29:13;;;;;;;6.57;3.40;;;;;;;;;;4976929;28;20081;-77
2022/10/09 07:31:39;;;;;;;5.93;3.08;;;;;;;;;;4963471;28;20486;-77
2022/10/09 07:34:05;;;;;;;8.23;3.72;;;;;;;;;;4955203;28;20034;-78
2022/10/09 07:36:32;;;;;;;6.70;3.97;;;;;;;;;;4980892;28;20023;-81
2022/10/09 07:38:58;;;;;;;9.15;4.28;;;;;;;;;;4977068;28;20031;-79
2022/10/09 07:41:25;;;;;;;7.03;3.88;;;;;;;;;;4979770;28;20030;-79
2022/10/09 07:43:52;;;;;;;6.18;3.67;;;;;;;;;;4976500;28;20035;-79
2022/10/09 07:46:19;;;;;;;7.68;3.47;;;;;;;;;;4978493;28;20485;-77
2022/10/09 07:48:45;;;;;;;7.05;4.05;;;;;;;;;;4976021;28;20035;-79
2022/10/09 07:51:11;;;;;;;7.95;4.05;;;;;;;;;;4970208;28;20042;-79
2022/10/09 07:53:37;;;;;;;4.65;3.15;;;;;;;;;;4955513;28;20047;-79
2022/10/09 07:56:04;;;;;;;5.85;3.50;;;;;;;;;;4975320;28;20031;-78
2022/10/09 07:58:30;;;;;;;6.50;3.08;;;;;;;;;;4969055;28;20022;-78
2022/10/09 08:00:56;;;;;;;4.50;3.22;;;;;;;;;;4966043;28;20028;-76
2022/10/09 08:03:22;;;;;;;5.15;3.50;;;;;;;;;;4970580;28;20102;-80
2022/10/09 08:05:54;;;;;;;7.28;3.90;;;;;;;;;;4986931;28;20037;-79
2022/10/09 08:08:26;;;;;;;5.78;3.60;;;;;;;;;;4986661;28;20280;-84
2022/10/09 08:10:52;;;;;;;7.40;3.50;;;;;;;;;;4985166;28;20445;-82
2022/10/09 08:13:19;;;;;;;5.93;3.33;;;;;;;;;;4956110;28;20264;-82
2022/10/09 08:15:45;;;;;;;7.75;3.75;;;;;;;;;;4962172;28;20055;-82
2022/10/09 08:18:13;;;;;;;6.53;4.00;;;;;;;;;;4953082;28;20046;-83
2022/10/09 08:24:32;;;;;;;;;;;;;;;;;;;;;
2022/10/09 08:50:50;;;;;;;7.97;3.10;;;;;;;;;;4118985;26;20118;-83
2022/10/09 08:53:30;;;;;;;7.32;3.45;;;;;;;;;;4964625;28;20038;-82
2022/10/09 08:56:02;;;;;;;10.70;3.58;;;;;;;;;;4970066;28;20039;-81
2022/10/09 08:58:54;;;;;;;10.75;3.58;;;;;;;;;;4970382;28;20022;-80
2022/10/09 09:01:33;;;;;;;5.85;2.80;;;;;;;;;;4970363;28;20030;-82
2022/10/09 09:04:17;;;;;;;7.38;2.95;;;;;;;;;;4996912;28;20023;-83
2022/10/09 09:06:53;;;;;;;6.25;2.78;;;;;;;;;;4979362;28;20027;-82
2022/10/09 09:09:35;;;;;;;9.20;3.03;;;;;;;;;;4975075;28;20031;-81
2022/10/09 09:12:13;;;;;;;8.63;2.47;;;;;;;;;;4961280;28;20030;-83
2022/10/09 09:21:06;;;;;;;;;;;;;;;;;;;;;
2022/10/09 09:38:46;;;;;;;7.20;2.15;;;;;;;;;;5198874;23;20093;-82
2022/10/09 09:41:41;;;;;;;;;;;;;;;;;;;;;
2022/10/09 09:54:08;;;;;;;4.13;1.90;;;;;;;;;;4990393;28;20081;-80
2022/10/09 09:57:10;;;;;;;5.13;1.85;;;;;;;;;;4914155;29;20114;-80
2022/10/09 09:59:48;;;;;;;5.35;2.42;;;;;;;;;;4906034;29;20044;-80
2022/10/09 10:02:35;;;;;;;6.55;1.90;;;;;;;;;;4967017;28;20043;-80
2022/10/09 11:27:14;;;;;;;5.03;1.30;;;;;;;;;;4984788;28;20052;-83
2022/10/09 11:33:31;;;;;;;5.60;1.17;;;;;;;;;;4948323;29;20462;-80
2022/10/09 11:36:20;;;;;;;4.55;1.40;;;;;;;;;;4932655;29;20064;-80
2022/10/09 11:42:20;;;;;;;5.45;1.23;;;;;;;;;;4925352;29;20066;-80
2022/10/09 11:45:18;;;;;;;;;;;;;;;;;;;;;
2022/10/09 11:50:58;;;;;;;4.75;1.40;;;;;;;;;;5001766;23;20401;-81
2022/10/09 11:54:00;;;;;;;6.78;1.98;;;;;;;;;;4911568;29;20021;-80
2022/10/09 12:00:41;;;;;;;6.25;1.38;;;;;;;;;;4891525;29;20025;-80
2022/10/09 12:03:56;;;;;;;;;;;;;;;;;;;;;
2022/10/09 12:06:42;;;;;;;;;;;;;;;;;;;;;
2022/10/09 12:09:30;;;;;;;4.00;1.20;;;;;;;;;;4960176;29;20126;-79
2022/10/09 12:12:24;;;;;;;5.50;1.20;;;;;;;;;;4946974;29;20039;-80
2022/10/09 12:15:18;;;;;;;7.25;1.48;;;;;;;;;;4962203;29;20036;-80
2022/10/09 12:24:06;;;;;;;;;;;;;;;;;;;;;
2022/10/09 12:46:56;;;;;;;3.40;1.08;;;;;;;;;;4943785;28;20028;-81
2022/10/09 12:50:03;;;;;;;5.30;1.42;;;;;;;;;;4993716;28;20026;-80
2022/10/09 12:52:30;;;;;;;5.43;1.05;;;;;;;;;;4985687;28;20022;-81
2022/10/09 12:55:08;;;;;;;5.55;1.20;;;;;;;;;;5012819;28;20034;-83
2022/10/09 12:57:46;;;;;;;5.95;1.55;;;;;;;;;;4992181;28;20026;-80
2022/10/09 13:00:18;;;;;;;6.03;1.58;;;;;;;;;;4973682;28;20022;-80
2022/10/09 13:09:37;;;;;;;4.32;1.70;;;;;;;;;;5099756;23;20053;-80
2022/10/09 13:21:34;;;;;;;5.47;1.38;;;;;;;;;;4942807;23;20134;-79
2022/10/09 13:24:10;;;;;;;8.32;1.13;;;;;;;;;;4978921;28;20030;-79
2022/10/09 13:26:37;;;;;;;5.47;1.02;;;;;;;;;;4997554;28;20022;-78
2022/10/09 13:29:09;;;;;;;7.43;1.45;;;;;;;;;;5003456;28;20266;-79
2022/10/09 13:31:35;;;;;;;4.10;1.38;;;;;;;;;;4999673;28;20406;-79
2022/10/09 13:34:09;;;;;;;6.38;2.03;;;;;;;;;;4980352;28;20073;-79
2022/10/09 13:36:36;;;;;;;5.00;1.33;;;;;;;;;;4974935;28;20049;-78
2022/10/09 13:39:02;;;;;;;4.68;1.20;;;;;;;;;;4974876;28;20031;-78
2022/10/09 13:41:28;;;;;;;4.88;1.27;;;;;;;;;;4974462;28;20805;-78
2022/10/09 13:43:54;;;;;;;8.55;1.95;;;;;;;;;;4960115;28;20125;-79
2022/10/09 13:46:20;;;;;;;6.30;1.35;;;;;;;;;;4984269;28;20041;-79
2022/10/09 13:48:49;;;;;;;5.40;1.55;;;;;;;;;;4983667;28;20027;-79
2022/10/09 13:51:15;;;;;;;2.28;0.95;;;;;;;;;;4977623;28;20038;-79
2022/10/09 13:53:41;;;;;;;4.75;1.60;;;;;;;;;;4976044;28;20038;-78
2022/10/09 13:56:08;;;;;;;4.68;1.33;;;;;;;;;;4975935;28;20481;-78
2022/10/09 13:58:35;;;;;;;2.42;1.40;;;;;;;;;;4975630;28;20496;-78
2022/10/09 14:01:01;;;;;;;5.10;1.30;;;;;;;;;;4988911;28;20113;-79
2022/10/09 14:03:27;;;;;;;3.42;1.15;;;;;;;;;;4989906;28;20042;-79
2022/10/09 14:06:01;;;;;;;5.75;1.27;;;;;;;;;;4986062;28;20554;-78
2022/10/09 14:08:28;;;;;;;5.47;1.10;;;;;;;;;;4995584;28;20441;-78
2022/10/09 14:10:59;;;;;;;4.75;1.48;;;;;;;;;;4987690;23;20098;-78
2022/10/09 14:13:25;;;;;;;7.07;1.17;;;;;;;;;;5007189;28;20122;-79
2022/10/09 14:15:58;;;;;;;3.17;1.08;;;;;;;;;;5014446;28;20026;-79
2022/10/09 14:18:24;;;;;;;4.95;1.10;;;;;;;;;;5016461;28;20042;-79
2022/10/09 14:20:52;;;;;;;2.22;0.98;;;;;;;;;;4999261;28;20042;-79
2022/10/09 14:23:24;;;;;;;2.92;1.08;;;;;;;;;;4987684;28;20061;-78
2022/10/09 15:43:51;;;;;;;5.30;1.80;;;;;;;;;;4969931;28;20053;-76
2022/10/09 15:46:17;;;;;;;;;;;;;;;;;;4974184;28;20023;-77
2022/10/09 15:48:55;;;;;;;9.70;3.53;;;;;;;;;;4957017;28;19975;-79
2022/10/09 15:51:33;;;;;;;7.70;2.70;;;;;;;;;;4956613;28;20027;-77
2022/10/09 15:54:42;;;;;;;7.15;2.03;;;;;;;;;;4972208;28;20019;-78
2022/10/09 15:56:53;;;;;;;3.95;1.70;;;;;;;;;;4949064;28;20027;-78
2022/10/09 15:59:21;;;;;;;8.30;1.33;;;;;;;;;;4967185;28;20106;-78
2022/10/09 16:01:48;;;;;;;9.10;1.73;;;;;;;;;;4973772;28;20109;-77
2022/10/09 16:04:18;;;;;;;5.40;1.52;;;;;;;;;;4973870;28;20597;-77
2022/10/09 16:07:30;;;;;;;4.45;1.80;;;;;;;;;;4967887;28;20030;-76
2022/10/09 16:09:59;;;;;;;3.47;1.60;;;;;;;;;;4988100;28;20110;-77
2022/10/09 16:12:25;;;;;;;6.25;1.90;;;;;;;;;;4991176;28;20031;-77
2022/10/09 16:14:51;;;;;;;3.90;2.25;;;;;;;;;;4974697;28;20037;-77
2022/10/09 16:17:20;;;;;;;5.05;2.42;;;;;;;;;;4976312;28;20559;-79
2022/10/09 16:19:52;;;;;;;10.13;2.47;;;;;;;;;;4955657;28;20031;-78
2022/10/09 16:22:25;;;;;;;10.13;2.67;;;;;;;;;;4972729;28;20019;-77
2022/10/09 16:27:54;;;;;;;6.63;2.35;;;;;;;;;;4965997;28;20098;-75
2022/10/09 16:30:25;;;;;;;5.40;2.47;;;;;;;;;;4972192;28;20026;-79
2022/10/09 16:32:54;;;;;;;5.78;2.40;;;;;;;;;;4970468;28;20027;-78
2022/10/09 16:35:29;;;;;;;7.72;2.40;;;;;;;;;;4971723;28;20031;-76
2022/10/09 16:37:55;;;;;;;10.55;2.53;;;;;;;;;;4972486;28;20031;-77
2022/10/09 16:40:34;;;;;;;6.72;2.47;;;;;;;;;;4972889;28;20023;-76
2022/10/09 16:43:01;;;;;;;8.45;2.38;;;;;;;;;;4955160;28;20047;-78
2022/10/09 16:45:29;;;;;;;8.90;2.70;;;;;;;;;;4972290;28;20042;-77
2022/10/09 16:47:59;;;;;;;5.40;2.35;;;;;;;;;;4953783;28;20018;-76
2022/10/09 16:50:25;;;;;;;5.47;2.42;;;;;;;;;;4970823;28;20512;-78
2022/10/09 16:52:51;;;;;;;5.20;2.50;;;;;;;;;;4971036;28;20030;-78
2022/10/09 16:55:17;;;;;;;4.60;2.35;;;;;;;;;;4971536;28;20030;-76
2022/10/09 16:57:46;;;;;;;7.22;2.60;;;;;;;;;;4972372;28;20537;-77
2022/10/09 17:00:12;;;;;;;7.95;2.95;;;;;;;;;;4971390;28;20030;-77
2022/10/09 17:02:38;;;;;;;12.77;7.22;;;;;;;;;;4972636;28;20069;-78
2022/10/09 17:05:05;;;;;;;17.10;10.50;;;;;;;;;;4972384;28;20477;-76
2022/10/09 17:07:31;;;;;;;13.10;7.07;;;;;;;;;;4957128;28;20213;-77
2022/10/09 17:09:57;;;;;;;12.40;6.80;;;;;;;;;;4969330;28;20054;-77
2022/10/09 17:12:28;;;;;;;10.30;4.82;;;;;;;;;;4974890;28;20026;-77
2022/10/09 17:14:54;;;;;;;13.13;4.50;;;;;;;;;;4955772;28;20034;-77
2022/10/09 17:17:29;;;;;;;7.00;3.13;;;;;;;;;;4985011;28;20039;-77
2022/10/09 17:20:01;;;;;;;11.65;4.03;;;;;;;;;;4975273;28;20489;-79
2022/10/09 17:22:30;;;;;;;7.25;3.30;;;;;;;;;;4962340;28;20027;-77
2022/10/09 17:24:56;;;;;;;8.10;2.40;;;;;;;;;;4977231;28;20049;-80
2022/10/09 17:27:28;;;;;;;8.13;3.30;;;;;;;;;;4995468;23;20042;-79
2022/10/09 17:33:10;;;;;;;;;;;;;;;;;;;;;
2022/10/09 17:35:40;;;;;;;11.52;4.53;;;;;;;;;;4973983;28;20509;-75
2022/10/09 17:38:13;;;;;;;17.40;5.90;;;;;;;;;;4966919;28;20519;-75
2022/10/09 17:40:47;;;;;;;9.57;4.00;;;;;;;;;;4968437;28;20126;-79
2022/10/09 17:43:13;;;;;;;9.73;3.97;;;;;;;;;;4984484;28;20027;-77
2022/10/09 17:49:02;;;;;;;7.25;3.88;;;;;;;;;;4962944;28;20098;-77
2022/10/09 17:55:44;;;;;;;9.60;3.63;;;;;;;;;;4913663;29;20021;-78
2022/10/09 17:58:13;;;;;;;9.95;4.55;;;;;;;;;;4873029;29;20033;-75
2022/10/09 18:00:45;;;;;;;12.07;3.85;;;;;;;;;;4878812;29;20043;-78
2022/10/09 18:03:20;;;;;;;8.88;3.83;;;;;;;;;;4945068;28;20046;-75
2022/10/09 18:08:56;;;;;;;8.65;3.67;;;;;;;;;;4960069;28;20031;-73
2022/10/09 18:11:23;;;;;;;8.73;3.88;;;;;;;;;;4967833;28;20022;-75
2022/10/09 18:13:49;;;;;;;11.30;4.25;;;;;;;;;;4980478;28;20081;-74
2022/10/09 18:16:17;;;;;;;14.48;4.78;;;;;;;;;;4976729;28;20046;-76
2022/10/09 18:18:44;;;;;;;15.57;5.88;;;;;;;;;;4968586;28;20023;-76
2022/10/09 18:21:11;;;;;;;13.57;5.65;;;;;;;;;;4967424;28;20276;-76
2022/10/09 18:23:40;;;;;;;11.35;6.20;;;;;;;;;;4982321;28;20062;-76
2022/10/09 18:26:07;;;;;;;9.88;5.75;;;;;;;;;;4986702;28;20349;-76
2022/10/09 18:28:54;;;;;;;10.10;5.15;;;;;;;;;;4980166;28;20034;-80
2022/10/09 18:31:22;;;;;;;14.27;5.65;;;;;;;;;;4980160;28;20011;-76
2022/10/09 18:33:51;;;;;;;13.60;5.55;;;;;;;;;;4998429;28;20074;-77
2022/10/09 18:36:32;;;;;;;15.25;6.43;;;;;;;;;;5000888;28;20086;-81
2022/10/09 18:39:07;;;;;;;14.68;6.00;;;;;;;;;;4986239;28;20026;-76
2022/10/09 18:41:35;;;;;;;14.32;6.60;;;;;;;;;;4980569;28;20027;-76
2022/10/09 18:44:01;;;;;;;13.25;6.30;;;;;;;;;;4979909;28;20030;-74
2022/10/09 18:46:30;;;;;;;18.48;6.82;;;;;;;;;;4986188;28;20689;-77
2022/10/09 18:48:56;;;;;;;13.13;6.10;;;;;;;;;;4971776;28;20051;-76
2022/10/09 18:51:26;;;;;;;13.43;6.45;;;;;;;;;;4961150;28;20498;-76
2022/10/09 18:53:54;;;;;;;13.30;5.57;;;;;;;;;;4980520;28;20049;-78
2022/10/09 18:56:30;;;;;;;9.18;4.45;;;;;;;;;;4985204;28;20049;-80
2022/10/09 19:01:48;;;;;;;11.10;4.50;;;;;;;;;;4951944;28;20031;-77
2022/10/09 19:04:14;;;;;;;13.05;4.93;;;;;;;;;;4978402;28;20386;-78
2022/10/09 19:06:40;;;;;;;9.20;4.45;;;;;;;;;;4975599;28;20027;-79
2022/10/09 19:09:23;;;;;;;10.88;4.90;;;;;;;;;;4971977;28;20082;-77
2022/10/09 19:11:51;;;;;;;9.68;4.32;;;;;;;;;;4955944;28;20498;-79
2022/10/09 19:20:15;;;;;;;13.15;5.15;;;;;;;;;;5121655;23;20054;-79
2022/10/09 19:22:47;;;;;;;;;;;;;;;;;;4988608;28;20085;-79
2022/10/09 19:32:17;;;;;;;11.75;4.30;;;;;;;;;;4900525;29;20444;-81
2022/10/09 19:34:51;;;;;;;16.67;4.40;;;;;;;;;;4893449;29;20037;-79
2022/10/09 19:37:30;;;;;;;9.45;4.50;;;;;;;;;;4944703;28;20230;-79
2022/10/09 19:40:08;;;;;;;9.23;3.60;;;;;;;;;;4962326;28;20038;-79
2022/10/09 19:53:24;;;;;;;11.75;5.05;;;;;;;;;;1219014;23;20054;-78
2022/10/09 19:55:50;;;;;;;10.05;4.65;;;;;;;;;;4986730;28;20397;-78
2022/10/09 19:58:17;;;;;;;13.50;5.13;;;;;;;;;;4988925;28;20019;-80
2022/10/09 20:00:45;;;;;;;15.20;5.85;;;;;;;;;;4975197;28;20031;-80
2022/10/09 20:03:11;;;;;;;10.80;4.75;;;;;;;;;;4994960;28;20030;-78
2022/10/09 20:05:46;;;;;;;12.73;5.45;;;;;;;;;;4960638;28;20454;-79
2022/10/09 20:08:12;;;;;;;15.55;5.82;;;;;;;;;;4979502;28;20026;-80
2022/10/09 20:10:38;;;;;;;14.85;5.75;;;;;;;;;;4960836;28;20023;-78
2022/10/09 20:13:05;;;;;;;12.27;6.05;;;;;;;;;;4973379;28;20038;-79
2022/10/09 20:15:31;;;;;;;9.95;5.35;;;;;;;;;;4973663;28;20030;-76
2022/10/09 20:17:57;;;;;;;14.10;5.45;;;;;;;;;;4972481;28;20030;-80
2022/10/09 20:20:25;;;;;;;10.07;5.05;;;;;;;;;;4974065;28;20030;-78
2022/10/09 20:22:54;;;;;;;12.40;4.68;;;;;;;;;;4955568;28;20023;-77
2022/10/09 20:25:20;;;;;;;15.10;5.25;;;;;;;;;;4974051;28;20388;-77
2022/10/09 20:27:48;;;;;;;9.73;4.80;;;;;;;;;;4973088;28;20406;-78
2022/10/09 20:30:14;;;;;;;11.13;5.20;;;;;;;;;;4968748;28;20465;-77
2022/10/09 20:32:40;;;;;;;12.82;4.68;;;;;;;;;;4973440;28;20026;-77
2022/10/09 20:35:07;;;;;;;20.13;6.97;;;;;;;;;;4972338;28;20023;-75
2022/10/09 20:37:33;;;;;;;11.75;4.38;;;;;;;;;;4956458;28;20019;-79
2022/10/09 20:40:00;;;;;;;8.18;4.15;;;;;;;;;;4974894;28;20026;-78
2022/10/09 20:42:43;;;;;;;8.13;3.50;;;;;;;;;;4955778;28;20072;-74
2022/10/09 20:45:10;;;;;;;11.50;4.25;;;;;;;;;;4971851;28;20033;-78
2022/10/09 20:47:36;;;;;;;11.80;3.97;;;;;;;;;;4973661;28;20135;-79
2022/10/09 20:50:02;;;;;;;10.73;4.05;;;;;;;;;;4972058;28;20054;-80
2022/10/09 20:52:31;;;;;;;13.48;5.45;;;;;;;;;;4952368;28;20422;-79
2022/10/09 20:54:57;;;;;;;11.07;3.78;;;;;;;;;;4957298;28;20034;-78
2022/10/09 20:57:24;;;;;;;10.52;3.78;;;;;;;;;;4972628;28;20050;-76
2022/10/09 20:59:50;;;;;;;14.00;3.88;;;;;;;;;;4974377;28;20086;-76
2022/10/09 21:02:16;;;;;;;11.20;4.03;;;;;;;;;;4974413;28;20062;-77
2022/10/09 21:04:42;;;;;;;8.75;3.67;;;;;;;;;;4973656;28;20409;-77
2022/10/09 21:07:08;;;;;;;7.03;3.72;;;;;;;;;;4957287;28;20038;-77
2022/10/09 21:09:51;;;;;;;12.00;4.03;;;;;;;;;;4958770;28;20491;-78
2022/10/09 21:12:17;;;;;;;9.52;3.30;;;;;;;;;;4976612;28;20572;-76
2022/10/09 21:14:43;;;;;;;12.52;3.47;;;;;;;;;;4975671;28;20027;-77
2022/10/09 21:17:10;;;;;;;6.90;3.35;;;;;;;;;;4958668;28;20026;-76
2022/10/09 21:19:38;;;;;;;6.88;3.60;;;;;;;;;;4958800;28;20026;-77
2022/10/09 21:22:05;;;;;;;5.18;3.30;;;;;;;;;;4991427;28;20066;-74
2022/10/09 21:24:31;;;;;;;13.27;4.00;;;;;;;;;;4988792;28;20034;-74
2022/10/09 21:26:57;;;;;;;6.50;3.35;;;;;;;;;;4985949;28;20109;-75
2022/10/09 21:29:23;;;;;;;8.68;3.53;;;;;;;;;;4961902;28;20027;-74
2022/10/09 21:31:49;;;;;;;8.35;3.83;;;;;;;;;;4980849;28;20047;-74
2022/10/09 21:34:15;;;;;;;9.98;3.50;;;;;;;;;;4978764;28;20035;-77
2022/10/09 21:36:45;;;;;;;8.85;3.67;;;;;;;;;;4977058;28;20029;-76
2022/10/09 21:39:12;;;;;;;7.43;3.67;;;;;;;;;;4977729;28;20295;-77
2022/10/09 21:41:38;;;;;;;8.32;3.75;;;;;;;;;;4959943;28;20030;-77
2022/10/09 21:44:05;;;;;;;10.40;3.70;;;;;;;;;;4975798;28;20031;-74
2022/10/09 21:46:32;;;;;;;10.80;3.53;;;;;;;;;;4978367;28;20093;-77
2022/10/09 21:48:58;;;;;;;9.27;3.95;;;;;;;;;;4977247;28;20027;-77
2022/10/09 21:51:24;;;;;;;10.65;4.00;;;;;;;;;;4976402;28;20041;-77
2022/10/09 21:53:52;;;;;;;8.35;4.03;;;;;;;;;;4975770;28;20536;-77
2022/10/09 21:56:18;;;;;;;8.32;4.03;;;;;;;;;;4957774;28;20027;-76
2022/10/09 21:58:45;;;;;;;8.60;3.70;;;;;;;;;;4975060;28;20140;-79
2022/10/09 22:01:11;;;;;;;12.63;4.45;;;;;;;;;;4975359;28;20054;-77
2022/10/09 22:03:37;;;;;;;13.80;4.35;;;;;;;;;;4975053;28;20106;-76
2022/10/09 22:06:08;;;;;;;12.57;4.03;;;;;;;;;;4975039;28;20471;-76
2022/10/09 22:08:34;;;;;;;11.53;4.77;;;;;;;;;;4947611;28;20053;-75
2022/10/09 22:11:02;;;;;;;9.48;3.97;;;;;;;;;;4974533;28;20050;-74
2022/10/09 22:13:28;;;;;;;11.55;4.80;;;;;;;;;;4957274;28;20015;-77
2022/10/09 22:15:54;;;;;;;10.13;4.80;;;;;;;;;;4974875;28;20397;-77
2022/10/09 22:18:20;;;;;;;8.45;4.38;;;;;;;;;;4972981;28;20073;-77
2022/10/09 22:20:49;;;;;;;15.77;4.65;;;;;;;;;;4974895;28;20034;-76
2022/10/09 22:23:15;;;;;;;10.98;5.07;;;;;;;;;;4975116;28;20034;-77
2022/10/09 22:25:41;;;;;;;11.38;4.72;;;;;;;;;;4974834;28;20031;-76
2022/10/09 22:28:07;;;;;;;9.98;5.18;;;;;;;;;;4973072;28;20042;-77
2022/10/09 22:30:33;;;;;;;8.18;3.90;;;;;;;;;;4974526;28;20098;-74
2022/10/09 22:32:59;;;;;;;11.13;4.15;;;;;;;;;;4982660;28;20026;-77
2022/10/09 22:35:25;;;;;;;11.07;4.45;;;;;;;;;;4974618;28;20023;-76
2022/10/09 22:37:52;;;;;;;11.00;4.78;;;;;;;;;;4968548;28;20019;-76
2022/10/09 22:40:18;;;;;;;10.38;4.10;;;;;;;;;;4974567;28;20106;-77
2022/10/09 22:42:44;;;;;;;8.82;4.22;;;;;;;;;;4974621;28;20029;-76
2022/10/09 22:45:10;;;;;;;8.85;4.70;;;;;;;;;;4974142;28;20393;-76
2022/10/09 22:47:36;;;;;;;8.75;4.63;;;;;;;;;;4974343;28;20106;-76
2022/10/09 22:50:02;;;;;;;10.18;4.70;;;;;;;;;;4973936;28;20098;-76